createdAt,value
2019-06-10T00:00:52.450Z,56.74
2019-06-10T00:02:04.183Z,57.17
2019-06-10T00:02:52.422Z,56.63
2019-06-10T00:03:52.411Z,56.66
2019-06-10T00:05:02.431Z,56.76
2019-06-10T00:05:52.409Z,56.76
2019-06-10T00:07:03.713Z,56.76
2019-06-10T00:07:52.370Z,56.96
2019-06-10T00:08:52.374Z,57.17
2019-06-10T00:09:52.376Z,57.17
2019-06-10T00:10:52.382Z,57.26
2019-06-10T00:11:52.342Z,57.57
2019-06-10T00:12:55.189Z,56.79
2019-06-10T00:13:52.306Z,57.29
2019-06-10T00:14:52.313Z,57.50
2019-06-10T00:15:52.270Z,57.70
2019-06-10T00:16:52.335Z,57.70
2019-06-10T00:18:01.364Z,57.59
2019-06-10T00:18:53.257Z,57.50
2019-06-10T00:19:52.260Z,57.52
2019-06-10T00:20:52.314Z,58.02
2019-06-10T00:22:03.560Z,57.92
2019-06-10T00:23:02.108Z,58.12
2019-06-10T00:24:02.148Z,58.12
2019-06-10T00:25:03.563Z,58.42
2019-06-10T00:25:52.194Z,58.22
2019-06-10T00:27:02.380Z,59.06
2019-06-10T00:28:02.987Z,58.42
2019-06-10T00:29:00.690Z,58.55
2019-06-10T00:30:02.850Z,59.16
2019-06-10T00:31:02.089Z,59.06
2019-06-10T00:32:03.252Z,58.86
2019-06-10T00:34:04.600Z,59.26
2019-06-10T00:35:12.347Z,59.26
2019-06-10T00:36:13.535Z,59.36
2019-06-10T00:37:05.822Z,59.28
2019-06-10T00:38:06.902Z,59.08
2019-06-10T00:39:04.926Z,59.16
2019-06-10T00:40:13.679Z,58.98
2019-06-10T00:41:13.716Z,58.95
2019-06-10T00:42:14.637Z,59.48
2019-06-10T00:44:13.472Z,59.36
2019-06-10T00:45:21.630Z,59.28
2019-06-10T00:46:21.290Z,59.28
2019-06-10T00:47:21.257Z,59.28
2019-06-10T00:48:28.808Z,59.46
2019-06-10T00:49:14.880Z,59.66
2019-06-10T00:50:21.696Z,59.39
2019-06-10T00:51:21.142Z,59.16
2019-06-10T00:52:13.986Z,59.08
2019-06-10T00:53:23.349Z,59.28
2019-06-10T00:54:22.110Z,59.28
2019-06-10T00:55:21.966Z,59.08
2019-06-10T00:56:21.571Z,59.28
2019-06-10T00:57:21.450Z,59.28
2019-06-10T00:58:14.113Z,59.69
2019-06-10T00:59:22.079Z,59.59
2019-06-10T01:00:25.683Z,59.48
2019-06-10T01:02:31.873Z,59.59
2019-06-10T01:03:41.557Z,59.48
2019-06-10T01:04:40.772Z,59.39
2019-06-10T01:05:38.645Z,59.48
2019-06-10T01:06:42.344Z,59.52
2019-06-10T01:07:41.224Z,59.59
2019-06-10T01:09:51.705Z,59.59
2019-06-10T01:10:52.210Z,59.48
2019-06-10T01:11:57.512Z,59.52
2019-06-10T01:12:57.601Z,59.99
2019-06-10T01:13:50.796Z,59.89
2019-06-10T01:15:00.747Z,59.28
2019-06-10T01:15:58.126Z,59.59
2019-06-10T01:17:01.157Z,59.62
2019-06-10T01:17:58.179Z,59.48
2019-06-10T01:19:01.255Z,59.39
2019-06-10T01:19:57.648Z,59.48
2019-06-10T01:20:57.500Z,59.69
2019-06-10T01:21:58.481Z,59.48
2019-06-10T01:22:57.501Z,59.28
2019-06-10T01:24:01.057Z,59.08
2019-06-10T01:24:51.080Z,59.48
2019-06-10T01:25:51.039Z,59.11
2019-06-10T01:26:50.582Z,59.39
2019-06-10T01:27:51.505Z,59.62
2019-06-10T01:28:51.594Z,59.89
2019-06-10T01:29:51.063Z,59.59
2019-06-10T01:30:51.705Z,59.59
2019-06-10T01:31:51.224Z,59.59
2019-06-10T01:32:50.658Z,59.69
2019-06-10T01:33:51.300Z,59.69
2019-06-10T01:34:50.802Z,59.79
2019-06-10T01:35:51.503Z,59.52
2019-06-10T01:36:50.929Z,60.22
2019-06-10T01:37:51.880Z,60.12
2019-06-10T01:38:51.143Z,60.32
2019-06-10T01:40:00.796Z,60.22
2019-06-10T01:40:57.289Z,60.42
2019-06-10T01:41:51.225Z,60.32
2019-06-10T01:42:50.652Z,59.42
2019-06-10T01:43:51.274Z,60.22
2019-06-10T01:44:50.679Z,60.63
2019-06-10T01:45:51.101Z,59.92
2019-06-10T01:46:51.593Z,60.22
2019-06-10T01:47:51.110Z,60.12
2019-06-10T01:48:51.850Z,60.32
2019-06-10T01:49:51.552Z,60.12
2019-06-10T01:50:51.237Z,60.32
2019-06-10T01:51:51.593Z,60.72
2019-06-10T01:52:51.644Z,60.22
2019-06-10T01:53:51.290Z,59.72
2019-06-10T01:54:51.589Z,59.52
2019-06-10T01:56:00.841Z,60.02
2019-06-10T01:56:57.059Z,59.82
2019-06-10T01:59:01.461Z,59.62
2019-06-10T02:00:00.985Z,60.32
2019-06-10T02:02:12.664Z,60.32
2019-06-10T02:04:22.139Z,60.32
2019-06-10T02:05:22.374Z,60.02
2019-06-10T02:06:25.119Z,60.52
2019-06-10T02:07:22.978Z,60.32
2019-06-10T02:08:22.165Z,60.96
2019-06-10T02:09:23.013Z,60.65
2019-06-10T02:10:22.846Z,60.55
2019-06-10T02:11:23.506Z,61.05
2019-06-10T02:12:23.710Z,60.96
2019-06-10T02:13:22.049Z,60.75
2019-06-10T02:14:23.947Z,60.96
2019-06-10T02:15:22.478Z,61.16
2019-06-10T02:16:23.772Z,61.16
2019-06-10T02:17:23.556Z,61.05
2019-06-10T02:18:22.418Z,61.25
2019-06-10T02:19:22.484Z,61.05
2019-06-10T02:20:23.486Z,61.39
2019-06-10T02:21:24.031Z,61.18
2019-06-10T02:22:23.843Z,61.29
2019-06-10T02:23:22.971Z,61.69
2019-06-10T02:24:23.374Z,61.59
2019-06-10T02:25:21.680Z,61.49
2019-06-10T02:26:22.252Z,61.59
2019-06-10T02:27:21.920Z,61.69
2019-06-10T02:28:22.007Z,61.72
2019-06-10T02:29:22.225Z,62.09
2019-06-10T02:30:36.233Z,61.79
2019-06-10T02:31:30.067Z,61.69
2019-06-10T02:32:30.756Z,61.59
2019-06-10T02:33:29.939Z,61.79
2019-06-10T02:34:26.821Z,61.89
2019-06-10T02:35:30.541Z,61.69
2019-06-10T02:36:31.629Z,61.72
2019-06-10T02:38:35.620Z,61.79
2019-06-10T02:39:35.079Z,61.69
2019-06-10T02:40:36.290Z,61.99
2019-06-10T02:41:33.186Z,61.89
2019-06-10T02:42:35.511Z,61.89
2019-06-10T02:43:33.367Z,61.59
2019-06-10T02:44:37.119Z,61.79
2019-06-10T02:45:36.972Z,61.92
2019-06-10T02:46:35.949Z,61.99
2019-06-10T02:47:36.309Z,61.79
2019-06-10T02:48:34.935Z,61.79
2019-06-10T02:49:50.583Z,61.99
2019-06-10T02:50:36.180Z,61.79
2019-06-10T02:51:35.215Z,61.79
2019-06-10T02:52:34.201Z,61.59
2019-06-10T02:53:35.624Z,61.59
2019-06-10T02:54:35.444Z,61.76
2019-06-10T02:55:34.920Z,61.89
2019-06-10T02:56:35.875Z,61.79
2019-06-10T02:57:39.015Z,61.56
2019-06-10T02:58:38.341Z,61.89
2019-06-10T02:59:36.188Z,61.96
2019-06-10T03:00:42.571Z,61.86
2019-06-10T03:01:37.120Z,61.79
2019-06-10T03:02:36.080Z,62.09
2019-06-10T03:03:39.434Z,61.99
2019-06-10T03:04:33.986Z,62.19
2019-06-10T03:05:40.498Z,62.29
2019-06-10T03:06:36.322Z,61.99
2019-06-10T03:07:35.427Z,62.09
2019-06-10T03:08:32.700Z,62.19
2019-06-10T03:09:35.363Z,62.19
2019-06-10T03:10:33.942Z,62.32
2019-06-10T03:11:35.766Z,62.63
2019-06-10T03:12:33.118Z,62.73
2019-06-10T03:13:33.015Z,62.73
2019-06-10T03:14:32.865Z,63.13
2019-06-10T03:15:32.154Z,63.13
2019-06-10T03:16:32.752Z,62.73
2019-06-10T03:17:32.336Z,62.63
2019-06-10T03:18:32.855Z,62.76
2019-06-10T03:19:46.580Z,62.93
2019-06-10T03:20:32.088Z,62.73
2019-06-10T03:21:32.312Z,63.13
2019-06-10T03:22:32.622Z,63.03
2019-06-10T03:23:32.051Z,62.73
2019-06-10T03:24:32.649Z,63.13
2019-06-10T03:25:32.701Z,62.83
2019-06-10T03:26:32.313Z,63.03
2019-06-10T03:27:32.719Z,62.63
2019-06-10T03:28:32.104Z,62.83
2019-06-10T03:29:32.621Z,62.83
2019-06-10T03:30:44.236Z,62.83
2019-06-10T03:31:40.935Z,63.03
2019-06-10T03:32:36.566Z,62.63
2019-06-10T03:33:40.466Z,62.73
2019-06-10T03:34:41.208Z,62.52
2019-06-10T03:35:33.053Z,62.70
2019-06-10T03:36:32.240Z,62.70
2019-06-10T03:37:32.759Z,62.29
2019-06-10T03:38:32.485Z,62.70
2019-06-10T03:39:32.241Z,62.73
2019-06-10T03:40:32.675Z,62.70
2019-06-10T03:41:32.349Z,62.90
2019-06-10T03:42:32.366Z,62.40
2019-06-10T03:43:32.619Z,62.49
2019-06-10T03:44:30.271Z,62.49
2019-06-10T03:45:32.292Z,62.29
2019-06-10T03:46:32.691Z,62.09
2019-06-10T03:47:32.468Z,62.40
2019-06-10T03:48:32.574Z,62.12
2019-06-10T03:49:32.161Z,62.09
2019-06-10T03:50:32.371Z,62.09
2019-06-10T03:51:30.174Z,61.99
2019-06-10T03:52:32.320Z,62.09
2019-06-10T03:53:30.154Z,62.09
2019-06-10T03:54:32.383Z,62.09
2019-06-10T03:55:32.879Z,62.29
2019-06-10T03:56:32.070Z,62.49
2019-06-10T03:57:30.113Z,62.09
2019-06-10T03:58:32.476Z,62.29
2019-06-10T03:59:32.348Z,62.19
2019-06-10T04:00:32.548Z,62.29
2019-06-10T04:01:38.702Z,61.79
2019-06-10T04:02:32.557Z,61.66
2019-06-10T04:03:38.674Z,61.29
2019-06-10T04:04:30.089Z,61.59
2019-06-10T04:05:30.044Z,61.69
2019-06-10T04:06:33.353Z,61.69
2019-06-10T04:07:31.919Z,61.79
2019-06-10T04:08:32.597Z,61.79
2019-06-10T04:09:30.099Z,62.09
2019-06-10T04:10:32.352Z,61.79
2019-06-10T04:11:32.280Z,61.69
2019-06-10T04:12:32.776Z,61.36
2019-06-10T04:13:29.942Z,61.56
2019-06-10T04:14:29.990Z,61.49
2019-06-10T04:15:32.368Z,62.02
2019-06-10T04:16:29.936Z,61.99
2019-06-10T04:17:29.902Z,62.12
2019-06-10T04:18:32.487Z,62.02
2019-06-10T04:19:29.884Z,62.52
2019-06-10T04:20:29.885Z,62.32
2019-06-10T04:21:29.855Z,62.52
2019-06-10T04:22:29.841Z,62.73
2019-06-10T04:23:29.838Z,62.83
2019-06-10T04:24:29.858Z,62.83
2019-06-10T04:25:32.235Z,63.03
2019-06-10T04:26:29.807Z,63.33
2019-06-10T04:27:29.793Z,63.13
2019-06-10T04:28:29.779Z,63.13
2019-06-10T04:29:29.817Z,63.03
2019-06-10T04:30:32.348Z,63.03
2019-06-10T04:31:29.829Z,63.23
2019-06-10T04:32:32.116Z,63.43
2019-06-10T04:33:29.728Z,63.43
2019-06-10T04:34:31.028Z,63.76
2019-06-10T04:35:29.748Z,63.56
2019-06-10T04:36:29.709Z,63.46
2019-06-10T04:37:29.694Z,63.96
2019-06-10T04:38:29.686Z,63.67
2019-06-10T04:39:29.666Z,64.17
2019-06-10T04:40:29.653Z,64.50
2019-06-10T04:41:29.659Z,64.67
2019-06-10T04:42:29.653Z,64.37
2019-06-10T04:43:29.622Z,64.44
2019-06-10T04:44:29.608Z,64.17
2019-06-10T04:45:39.534Z,63.67
2019-06-10T04:46:38.429Z,63.46
2019-06-10T04:47:38.266Z,63.56
2019-06-10T04:48:37.217Z,63.76
2019-06-10T04:49:38.205Z,63.56
2019-06-10T04:50:45.537Z,63.76
2019-06-10T04:52:39.779Z,63.53
2019-06-10T04:53:41.027Z,63.64
2019-06-10T04:54:42.014Z,64.34
2019-06-10T04:55:39.743Z,63.64
2019-06-10T04:56:39.731Z,64.44
2019-06-10T04:57:39.701Z,63.64
2019-06-10T04:58:39.711Z,64.14
2019-06-10T04:59:47.366Z,63.73
2019-06-10T05:00:39.718Z,63.73
2019-06-10T05:01:42.353Z,63.73
2019-06-10T05:02:39.681Z,63.43
2019-06-10T05:03:39.660Z,63.33
2019-06-10T05:04:39.683Z,62.80
2019-06-10T05:05:39.621Z,63.30
2019-06-10T05:06:41.990Z,63.33
2019-06-10T05:07:39.608Z,63.40
2019-06-10T05:08:42.326Z,63.40
2019-06-10T05:09:39.564Z,63.93
2019-06-10T05:10:39.564Z,63.40
2019-06-10T05:11:39.570Z,63.00
2019-06-10T05:12:39.536Z,63.30
2019-06-10T05:13:39.522Z,63.60
2019-06-10T05:14:39.516Z,63.60
2019-06-10T05:15:39.505Z,64.21
2019-06-10T05:16:39.488Z,63.07
2019-06-10T05:17:39.498Z,62.40
2019-06-10T05:18:39.470Z,62.73
2019-06-10T05:19:39.462Z,63.13
2019-06-10T05:20:54.106Z,63.13
2019-06-10T05:21:42.432Z,63.13
2019-06-10T05:22:39.453Z,63.23
2019-06-10T05:23:39.422Z,63.13
2019-06-10T05:24:47.048Z,62.93
2019-06-10T05:25:48.029Z,63.23
2019-06-10T05:26:39.389Z,63.76
2019-06-10T05:27:48.163Z,64.37
2019-06-10T05:28:48.311Z,64.27
2019-06-10T05:29:47.973Z,64.37
2019-06-10T05:30:47.040Z,64.37
2019-06-10T05:31:46.978Z,64.24
2019-06-10T05:32:48.299Z,64.14
2019-06-10T05:33:39.316Z,63.73
2019-06-10T05:34:39.354Z,63.64
2019-06-10T05:35:39.288Z,63.70
2019-06-10T05:36:39.312Z,63.30
2019-06-10T05:37:39.325Z,63.20
2019-06-10T05:38:39.250Z,63.40
2019-06-10T05:39:39.237Z,62.57
2019-06-10T05:40:39.234Z,62.06
2019-06-10T05:41:49.975Z,62.06
2019-06-10T05:42:49.844Z,61.66
2019-06-10T05:43:46.877Z,61.66
2019-06-10T05:44:46.793Z,62.57
2019-06-10T05:45:46.796Z,62.54
2019-06-10T05:46:39.276Z,62.54
2019-06-10T05:47:49.606Z,62.64
2019-06-10T05:48:39.288Z,62.84
2019-06-10T05:49:46.726Z,62.94
2019-06-10T05:50:59.316Z,62.64
2019-06-10T05:51:42.346Z,62.54
2019-06-10T05:52:48.147Z,62.30
2019-06-10T05:53:47.807Z,61.60
2019-06-10T05:54:39.152Z,61.30
2019-06-10T05:55:46.680Z,61.60
2019-06-10T05:56:39.056Z,61.40
2019-06-10T05:57:39.053Z,61.50
2019-06-10T05:58:39.085Z,61.30
2019-06-10T05:59:39.108Z,61.17
2019-06-10T06:00:39.021Z,61.17
2019-06-10T06:01:38.998Z,60.97
2019-06-10T06:02:39.008Z,60.87
2019-06-10T06:03:38.996Z,60.77
2019-06-10T06:04:38.970Z,60.87
2019-06-10T06:05:38.961Z,60.74
2019-06-10T06:06:46.588Z,60.77
2019-06-10T06:08:01.054Z,61.07
2019-06-10T06:08:39.943Z,60.67
2019-06-10T06:09:38.926Z,60.27
2019-06-10T06:10:38.914Z,59.56
2019-06-10T06:11:39.030Z,59.59
2019-06-10T06:12:38.891Z,59.89
2019-06-10T06:13:38.868Z,60.39
2019-06-10T06:14:38.882Z,60.57
2019-06-10T06:15:38.849Z,60.67
2019-06-10T06:16:38.871Z,61.60
2019-06-10T06:17:38.859Z,60.57
2019-06-10T06:18:38.839Z,60.39
2019-06-10T06:19:38.963Z,61.07
2019-06-10T06:20:38.789Z,59.99
2019-06-10T06:21:43.418Z,60.80
2019-06-10T06:22:39.766Z,60.80
2019-06-10T06:23:38.761Z,60.80
2019-06-10T06:24:38.802Z,60.36
2019-06-10T06:25:42.903Z,60.47
2019-06-10T06:26:39.893Z,59.96
2019-06-10T06:27:38.731Z,60.97
2019-06-10T06:28:38.712Z,60.53
2019-06-10T06:29:38.713Z,60.53
2019-06-10T06:30:38.681Z,61.14
2019-06-10T06:31:38.736Z,60.33
2019-06-10T06:32:38.684Z,61.01
2019-06-10T06:33:39.940Z,61.41
2019-06-10T06:34:38.853Z,61.71
2019-06-10T06:35:42.850Z,61.91
2019-06-10T06:36:42.110Z,61.91
2019-06-10T06:37:39.703Z,62.05
2019-06-10T06:38:38.609Z,62.42
2019-06-10T06:39:38.602Z,62.12
2019-06-10T06:40:38.918Z,61.91
2019-06-10T06:41:39.126Z,61.71
2019-06-10T06:42:38.638Z,61.61
2019-06-10T06:43:41.994Z,61.41
2019-06-10T06:44:39.588Z,61.71
2019-06-10T06:45:38.964Z,61.91
2019-06-10T06:46:39.674Z,61.51
2019-06-10T06:47:39.100Z,61.82
2019-06-10T06:48:40.127Z,61.41
2019-06-10T06:49:38.668Z,61.31
2019-06-10T06:50:57.262Z,61.61
2019-06-10T06:51:51.729Z,61.08
2019-06-10T06:53:10.205Z,60.88
2019-06-10T06:53:45.451Z,61.49
2019-06-10T06:54:39.504Z,60.98
2019-06-10T06:55:39.669Z,60.98
2019-06-10T06:56:39.266Z,61.08
2019-06-10T06:57:38.992Z,61.31
2019-06-10T06:58:38.918Z,61.71
2019-06-10T06:59:39.091Z,62.12
2019-06-10T07:00:57.883Z,62.05
2019-06-10T07:01:40.899Z,62.55
2019-06-10T07:02:38.761Z,62.75
2019-06-10T07:03:39.984Z,62.65
2019-06-10T07:04:38.766Z,63.25
2019-06-10T07:05:38.929Z,63.56
2019-06-10T07:06:38.642Z,63.22
2019-06-10T07:07:38.653Z,63.35
2019-06-10T07:08:39.355Z,63.32
2019-06-10T07:09:38.938Z,63.73
2019-06-10T07:10:38.808Z,63.22
2019-06-10T07:11:40.213Z,63.22
2019-06-10T07:12:39.437Z,63.56
2019-06-10T07:13:40.420Z,63.15
2019-06-10T07:14:39.262Z,63.45
2019-06-10T07:15:39.512Z,63.53
2019-06-10T07:16:39.651Z,63.25
2019-06-10T07:17:39.420Z,62.92
2019-06-10T07:18:43.284Z,63.02
2019-06-10T07:19:39.969Z,62.12
2019-06-10T07:20:39.499Z,61.91
2019-06-10T07:21:58.424Z,62.02
2019-06-10T07:22:41.498Z,62.12
2019-06-10T07:23:41.101Z,62.02
2019-06-10T07:24:41.134Z,61.91
2019-06-10T07:25:41.311Z,61.79
2019-06-10T07:26:48.345Z,61.29
2019-06-10T07:27:42.870Z,61.58
2019-06-10T07:28:40.826Z,60.98
2019-06-10T07:29:41.429Z,60.88
2019-06-10T07:30:45.986Z,60.58
2019-06-10T07:31:39.692Z,59.75
2019-06-10T07:32:39.178Z,59.45
2019-06-10T07:33:40.915Z,60.48
2019-06-10T07:34:38.834Z,60.28
2019-06-10T07:35:38.901Z,60.81
2019-06-10T07:36:38.928Z,60.88
2019-06-10T07:37:39.419Z,60.18
2019-06-10T07:38:40.970Z,59.38
2019-06-10T07:39:39.231Z,59.38
2019-06-10T07:40:39.139Z,58.97
2019-06-10T07:41:39.209Z,59.88
2019-06-10T07:42:38.991Z,60.68
2019-06-10T07:43:42.138Z,58.97
2019-06-10T07:44:39.108Z,57.87
2019-06-10T07:45:39.484Z,57.46
2019-06-10T07:46:39.259Z,57.64
2019-06-10T07:47:38.999Z,57.46
2019-06-10T07:48:39.534Z,57.57
2019-06-10T07:49:39.197Z,58.17
2019-06-10T07:50:39.260Z,58.07
2019-06-10T07:51:39.253Z,58.24
2019-06-10T07:52:38.945Z,57.74
2019-06-10T07:53:38.655Z,57.74
2019-06-10T07:54:37.797Z,58.04
2019-06-10T07:55:37.928Z,58.34
2019-06-10T07:56:50.190Z,58.24
2019-06-10T07:58:49.239Z,57.98
2019-06-10T08:00:12.783Z,57.91
2019-06-10T08:00:58.650Z,57.79
2019-06-10T08:01:51.634Z,58.18
2019-06-10T08:02:52.865Z,57.86
2019-06-10T08:03:49.247Z,57.06
2019-06-10T08:04:49.155Z,57.18
2019-06-10T08:05:49.141Z,56.65
2019-06-10T08:06:50.107Z,56.15
2019-06-10T08:07:49.203Z,56.15
2019-06-10T08:08:49.107Z,56.65
2019-06-10T08:09:49.107Z,56.76
2019-06-10T08:10:49.089Z,55.55
2019-06-10T08:11:49.120Z,56.58
2019-06-10T08:12:49.089Z,56.65
2019-06-10T08:13:49.064Z,55.65
2019-06-10T08:14:49.073Z,55.38
2019-06-10T08:15:49.092Z,55.15
2019-06-10T08:16:49.050Z,55.05
2019-06-10T08:17:49.071Z,55.10
2019-06-10T08:19:16.015Z,54.20
2019-06-10T08:19:51.127Z,54.80
2019-06-10T08:20:48.977Z,54.02
2019-06-10T08:21:49.624Z,52.17
2019-06-10T08:22:54.096Z,50.74
2019-06-10T08:23:49.967Z,48.26
2019-06-10T08:24:49.018Z,46.11
2019-06-10T08:25:53.680Z,44.75
2019-06-10T08:26:49.915Z,42.68
2019-06-10T08:27:49.364Z,43.02
2019-06-10T08:28:48.918Z,41.31
2019-06-10T08:29:49.790Z,40.21
2019-06-10T08:30:49.874Z,41.77
2019-06-10T08:31:50.051Z,41.52
2019-06-10T08:32:53.173Z,42.84
2019-06-10T08:33:49.887Z,40.74
2019-06-10T08:34:48.832Z,42.11
2019-06-10T08:35:57.321Z,40.50
2019-06-10T08:36:50.830Z,39.89
2019-06-10T08:37:48.840Z,40.92
2019-06-10T08:38:48.887Z,40.58
2019-06-10T08:39:48.851Z,39.40
2019-06-10T08:40:48.886Z,41.04
2019-06-10T08:41:49.313Z,41.52
2019-06-10T08:42:48.944Z,41.44
2019-06-10T08:43:48.737Z,41.10
2019-06-10T08:44:48.778Z,40.90
2019-06-10T08:45:48.863Z,39.34
2019-06-10T08:46:48.767Z,39.12
2019-06-10T08:47:49.187Z,37.89
2019-06-10T08:48:49.634Z,36.77
2019-06-10T08:49:49.168Z,36.99
2019-06-10T08:50:50.066Z,38.07
2019-06-10T08:51:50.159Z,37.85
2019-06-10T08:53:04.022Z,37.05
2019-06-10T08:53:50.067Z,36.95
2019-06-10T08:54:50.978Z,37.23
2019-06-10T08:55:50.285Z,36.42
2019-06-10T08:56:50.764Z,36.85
2019-06-10T08:57:51.077Z,37.46
2019-06-10T08:58:49.690Z,36.77
2019-06-10T08:59:49.380Z,37.76
2019-06-10T09:00:49.519Z,37.46
2019-06-10T09:01:55.388Z,37.46
2019-06-10T09:02:51.415Z,36.55
2019-06-10T09:03:50.291Z,37.15
2019-06-10T09:04:50.420Z,36.75
2019-06-10T09:05:50.699Z,36.85
2019-06-10T09:06:50.650Z,37.46
2019-06-10T09:07:51.275Z,37.84
2019-06-10T09:08:51.319Z,38.23
2019-06-10T09:09:50.305Z,38.03
2019-06-10T09:10:51.165Z,37.63
2019-06-10T09:11:51.218Z,38.15
2019-06-10T09:12:52.058Z,37.62
2019-06-10T09:13:50.509Z,36.80
2019-06-10T09:14:49.993Z,36.09
2019-06-10T09:16:07.115Z,36.06
2019-06-10T09:16:51.390Z,34.59
2019-06-10T09:17:52.058Z,33.89
2019-06-10T09:18:51.202Z,34.05
2019-06-10T09:19:51.191Z,33.95
2019-06-10T09:20:51.430Z,33.25
2019-06-10T09:21:52.787Z,33.56
2019-06-10T09:23:11.205Z,33.67
2019-06-10T09:23:56.813Z,35.00
2019-06-10T09:24:53.142Z,35.58
2019-06-10T09:26:58.602Z,35.70
2019-06-10T09:27:58.614Z,35.49
2019-06-10T09:28:58.639Z,35.17
2019-06-10T09:29:58.825Z,34.96
2019-06-10T09:32:12.351Z,33.43
2019-06-10T09:33:09.779Z,34.33
2019-06-10T09:34:12.567Z,33.95
2019-06-10T09:35:12.460Z,33.45
2019-06-10T09:36:09.757Z,34.33
2019-06-10T09:37:12.231Z,33.64
2019-06-10T09:38:09.855Z,33.34
2019-06-10T09:39:09.767Z,33.25
2019-06-10T09:40:12.212Z,33.94
2019-06-10T09:41:09.706Z,34.33
2019-06-10T09:42:14.109Z,35.08
2019-06-10T09:43:09.693Z,36.86
2019-06-10T09:44:09.679Z,36.78
2019-06-10T09:45:09.668Z,36.80
2019-06-10T09:46:09.735Z,36.40
2019-06-10T09:47:09.721Z,37.70
2019-06-10T09:48:09.736Z,37.44
2019-06-10T09:49:09.635Z,39.15
2019-06-10T09:50:12.121Z,39.26
2019-06-10T09:51:09.685Z,39.25
2019-06-10T09:52:09.622Z,39.25
2019-06-10T09:53:09.641Z,39.54
2019-06-10T09:54:12.577Z,39.26
2019-06-10T09:55:09.604Z,40.41
2019-06-10T09:56:09.569Z,40.94
2019-06-10T09:57:09.578Z,43.27
2019-06-10T09:58:12.172Z,43.71
2019-06-10T09:59:09.612Z,44.24
2019-06-10T10:00:09.545Z,44.24
2019-06-10T10:01:09.525Z,44.46
2019-06-10T10:02:09.575Z,45.87
2019-06-10T10:03:12.201Z,46.30
2019-06-10T10:04:09.495Z,46.37
2019-06-10T10:05:09.513Z,46.15
2019-06-10T10:06:14.938Z,45.51
2019-06-10T10:07:12.116Z,45.36
2019-06-10T10:08:09.449Z,45.68
2019-06-10T10:09:09.481Z,46.30
2019-06-10T10:10:09.431Z,46.27
2019-06-10T10:11:12.337Z,45.56
2019-06-10T10:12:09.428Z,45.75
2019-06-10T10:13:09.663Z,45.63
2019-06-10T10:14:10.750Z,45.34
2019-06-10T10:15:26.510Z,44.72
2019-06-10T10:16:10.366Z,45.21
2019-06-10T10:17:09.379Z,45.01
2019-06-10T10:18:09.368Z,45.79
2019-06-10T10:19:09.377Z,45.41
2019-06-10T10:20:09.325Z,44.50
2019-06-10T10:21:09.322Z,44.13
2019-06-10T10:22:11.684Z,44.82
2019-06-10T10:23:09.324Z,44.42
2019-06-10T10:24:14.056Z,44.72
2019-06-10T10:25:10.283Z,44.90
2019-06-10T10:26:09.265Z,44.60
2019-06-10T10:27:10.266Z,43.41
2019-06-10T10:28:09.242Z,43.53
2019-06-10T10:29:09.253Z,44.64
2019-06-10T10:30:09.224Z,44.56
2019-06-10T10:31:09.213Z,45.65
2019-06-10T10:32:09.305Z,45.56
2019-06-10T10:33:09.220Z,45.63
2019-06-10T10:34:09.202Z,45.63
2019-06-10T10:35:09.171Z,44.52
2019-06-10T10:36:09.189Z,44.62
2019-06-10T10:37:09.151Z,44.40
2019-06-10T10:38:09.140Z,44.40
2019-06-10T10:39:09.632Z,43.88
2019-06-10T10:40:09.119Z,43.49
2019-06-10T10:41:09.110Z,43.79
2019-06-10T10:42:09.102Z,43.49
2019-06-10T10:43:23.251Z,43.79
2019-06-10T10:44:10.113Z,43.71
2019-06-10T10:45:09.094Z,44.80
2019-06-10T10:46:09.371Z,44.50
2019-06-10T10:47:09.053Z,43.80
2019-06-10T10:48:09.045Z,44.31
2019-06-10T10:49:09.046Z,44.20
2019-06-10T10:50:09.013Z,43.91
2019-06-10T10:51:09.028Z,43.61
2019-06-10T10:52:09.424Z,44.31
2019-06-10T10:53:08.981Z,44.70
2019-06-10T10:54:22.380Z,43.98
2019-06-10T10:55:09.994Z,43.79
2019-06-10T10:56:09.536Z,43.88
2019-06-10T10:57:08.942Z,44.18
2019-06-10T10:58:08.948Z,44.01
2019-06-10T10:59:08.922Z,43.31
2019-06-10T11:00:08.932Z,43.41
2019-06-10T11:01:08.902Z,43.80
2019-06-10T11:02:08.888Z,44.60
2019-06-10T11:03:08.876Z,45.01
2019-06-10T11:04:08.881Z,45.12
2019-06-10T11:05:08.882Z,44.74
2019-06-10T11:06:08.850Z,45.43
2019-06-10T11:07:08.838Z,45.53
2019-06-10T11:08:08.869Z,45.61
2019-06-10T11:09:08.991Z,45.63
2019-06-10T11:10:08.868Z,45.43
2019-06-10T11:11:08.800Z,45.61
2019-06-10T11:12:08.788Z,45.43
2019-06-10T11:13:08.777Z,46.15
2019-06-10T11:14:08.807Z,46.15
2019-06-10T11:15:08.774Z,45.85
2019-06-10T11:16:08.746Z,45.53
2019-06-10T11:17:08.755Z,45.01
2019-06-10T11:18:08.726Z,44.32
2019-06-10T11:19:08.712Z,44.42
2019-06-10T11:20:08.724Z,44.42
2019-06-10T11:21:08.691Z,44.02
2019-06-10T11:22:08.683Z,45.04
2019-06-10T11:23:08.685Z,44.84
2019-06-10T11:24:08.735Z,46.03
2019-06-10T11:25:08.653Z,45.31
2019-06-10T11:26:08.658Z,44.13
2019-06-10T11:27:08.630Z,44.13
2019-06-10T11:28:08.619Z,44.72
2019-06-10T11:29:08.625Z,44.52
2019-06-10T11:30:08.625Z,44.42
2019-06-10T11:31:08.606Z,44.37
2019-06-10T11:32:08.581Z,44.07
2019-06-10T11:33:08.568Z,44.46
2019-06-10T11:34:08.556Z,45.14
2019-06-10T11:35:08.574Z,43.85
2019-06-10T11:36:08.562Z,44.96
2019-06-10T11:37:08.529Z,44.96
2019-06-10T11:38:08.525Z,45.56
2019-06-10T11:39:08.514Z,44.94
2019-06-10T11:40:08.497Z,44.84
2019-06-10T11:41:08.507Z,44.24
2019-06-10T11:42:08.473Z,44.82
2019-06-10T11:43:08.469Z,43.61
2019-06-10T11:44:08.453Z,44.01
2019-06-10T11:45:08.442Z,43.59
2019-06-10T11:46:08.476Z,42.88
2019-06-10T11:47:08.421Z,42.80
2019-06-10T11:48:08.410Z,43.39
2019-06-10T11:49:08.399Z,43.61
2019-06-10T11:50:08.394Z,42.99
2019-06-10T11:51:08.403Z,42.40
2019-06-10T11:52:08.382Z,41.24
2019-06-10T11:53:08.360Z,42.46
2019-06-10T11:54:08.348Z,43.35
2019-06-10T11:55:15.368Z,43.77
2019-06-10T11:56:09.343Z,43.67
2019-06-10T11:57:08.316Z,45.70
2019-06-10T11:58:08.334Z,45.60
2019-06-10T11:59:10.091Z,45.48
2019-06-10T12:00:14.075Z,45.68
2019-06-10T12:01:09.307Z,44.29
2019-06-10T12:02:08.681Z,44.29
2019-06-10T12:03:08.253Z,44.86
2019-06-10T12:04:08.255Z,44.27
2019-06-10T12:05:08.235Z,44.59
2019-06-10T12:06:08.245Z,45.32
2019-06-10T12:07:08.693Z,45.92
2019-06-10T12:08:08.196Z,45.92
2019-06-10T12:09:08.191Z,46.22
2019-06-10T12:10:08.201Z,45.92
2019-06-10T12:11:08.205Z,45.90
2019-06-10T12:12:08.152Z,46.42
2019-06-10T12:13:08.144Z,46.22
2019-06-10T12:14:08.134Z,45.92
2019-06-10T12:15:08.120Z,45.79
2019-06-10T12:17:32.589Z,45.30
2019-06-10T12:18:09.695Z,45.79
2019-06-10T12:19:08.078Z,45.72
2019-06-10T12:20:08.071Z,46.31
2019-06-10T12:21:08.077Z,46.22
2019-06-10T12:22:08.090Z,46.42
2019-06-10T12:23:08.079Z,46.31
2019-06-10T12:24:08.028Z,46.12
2019-06-10T12:25:30.445Z,47.01
2019-06-10T12:26:09.023Z,47.83
2019-06-10T12:27:07.998Z,46.53
2019-06-10T12:28:08.166Z,46.64
2019-06-10T12:29:07.975Z,46.91
2019-06-10T12:30:15.711Z,46.83
2019-06-10T12:31:16.660Z,46.93
2019-06-10T12:32:15.634Z,46.44
2019-06-10T12:33:21.543Z,47.73
2019-06-10T12:36:28.969Z,46.51
2019-06-10T12:37:36.459Z,47.73
2019-06-10T12:38:37.708Z,47.01
2019-06-10T12:39:28.844Z,47.41
2019-06-10T12:40:36.460Z,46.91
2019-06-10T12:42:46.577Z,46.91
2019-06-10T12:43:54.803Z,46.12
2019-06-10T12:44:46.576Z,46.22
2019-06-10T12:45:55.867Z,46.12
2019-06-10T12:46:59.712Z,46.42
2019-06-10T12:47:56.779Z,45.92
2019-06-10T12:48:58.184Z,46.64
2019-06-10T12:50:59.284Z,47.03
2019-06-10T12:52:07.563Z,46.44
2019-06-10T12:53:07.197Z,46.14
2019-06-10T12:54:06.366Z,46.14
2019-06-10T12:55:05.355Z,46.73
2019-06-10T12:56:09.987Z,46.93
2019-06-10T12:58:07.910Z,47.43
2019-06-10T12:59:15.500Z,46.42
2019-06-10T13:00:23.058Z,46.31
2019-06-10T13:02:23.040Z,46.22
2019-06-10T13:03:27.992Z,46.22
2019-06-10T13:04:26.308Z,46.34
2019-06-10T13:05:29.090Z,47.13
2019-06-10T13:06:19.057Z,46.53
2019-06-10T13:07:27.778Z,46.24
2019-06-10T13:08:28.468Z,47.55
2019-06-10T13:09:28.957Z,47.05
2019-06-10T13:10:27.660Z,47.65
2019-06-10T13:11:19.096Z,47.16
2019-06-10T13:12:27.719Z,46.06
2019-06-10T13:14:29.234Z,48.14
2019-06-10T13:15:29.197Z,48.17
2019-06-10T13:16:29.159Z,47.87